createdAt,value
2019-01-05T00:00:16.298Z,8.20
2019-01-05T00:03:09.937Z,9.03
2019-01-05T00:05:58.204Z,9.70
2019-01-05T00:08:50.018Z,9.37
2019-01-05T00:11:51.979Z,8.70
2019-01-05T00:14:40.544Z,10.23
2019-01-05T00:17:33.179Z,10.10
2019-01-05T00:20:36.066Z,8.60
2019-01-05T00:23:24.152Z,9.13
2019-01-05T00:26:12.239Z,8.73
2019-01-05T00:29:09.017Z,9.30
2019-01-05T00:32:10.659Z,9.23
2019-01-05T00:35:08.748Z,8.67
2019-01-05T00:38:03.832Z,9.83
2019-01-05T00:40:57.062Z,9.80
2019-01-05T00:43:58.806Z,10.27
2019-01-05T00:46:58.167Z,8.83
2019-01-05T00:49:49.600Z,10.30
2019-01-05T00:52:38.428Z,9.53
2019-01-05T00:55:30.713Z,10.37
2019-01-05T00:58:14.385Z,10.00
2019-01-05T01:01:12.695Z,9.57
2019-01-05T01:04:00.754Z,9.63
2019-01-05T01:06:48.920Z,9.47
2019-01-05T01:09:49.727Z,8.30
2019-01-05T01:12:41.974Z,9.10
2019-01-05T01:15:34.386Z,9.93
2019-01-05T01:18:33.360Z,9.03
2019-01-05T01:21:26.375Z,9.80
2019-01-05T01:24:16.097Z,9.30
2019-01-05T01:26:57.840Z,8.97
2019-01-05T01:30:02.601Z,8.80
2019-01-05T01:33:07.304Z,8.93
2019-01-05T01:36:14.798Z,10.23
2019-01-05T01:39:38.590Z,8.90
2019-01-05T01:42:31.139Z,10.40
2019-01-05T01:45:23.981Z,8.63
2019-01-05T01:48:17.743Z,8.57
2019-01-05T01:51:11.634Z,8.27
2019-01-05T01:54:20.779Z,9.17
2019-01-05T01:57:06.708Z,8.33
2019-01-05T02:00:22.471Z,9.07
2019-01-05T02:03:13.575Z,8.80
2019-01-05T02:06:12.458Z,7.03
2019-01-05T02:09:09.669Z,7.77
2019-01-05T02:12:03.343Z,9.57
2019-01-05T02:15:00.962Z,9.87
2019-01-05T02:18:16.217Z,8.60
2019-01-05T02:21:51.479Z,7.53
2019-01-05T02:25:25.285Z,8.50
2019-01-05T02:28:48.675Z,7.53
2019-01-05T02:31:47.933Z,7.90
2019-01-05T02:34:54.440Z,7.50
2019-01-05T02:38:57.761Z,8.27
2019-01-05T02:42:19.378Z,7.93
2019-01-05T02:45:51.631Z,7.53
2019-01-05T02:49:25.574Z,7.40
2019-01-05T02:52:52.962Z,8.23
2019-01-05T02:56:14.819Z,8.17
2019-01-05T02:59:41.372Z,6.87
2019-01-05T03:03:31.813Z,8.20
2019-01-05T03:07:17.393Z,8.80
2019-01-05T03:10:34.414Z,8.63
2019-01-05T03:14:17.592Z,9.33
2019-01-05T03:17:44.992Z,7.47
2019-01-05T03:21:05.590Z,8.03
2019-01-05T03:24:38.878Z,7.67
2019-01-05T03:28:04.539Z,7.43
2019-01-05T03:31:36.217Z,7.57
2019-01-05T03:35:04.179Z,8.40
2019-01-05T03:38:18.934Z,7.77
2019-01-05T03:42:00.051Z,8.10
2019-01-05T03:45:41.713Z,10.23
2019-01-05T03:49:24.169Z,7.77
2019-01-05T03:53:21.553Z,7.80
2019-01-05T03:56:47.762Z,8.30
2019-01-05T04:00:13.369Z,7.63
2019-01-05T04:03:50.906Z,9.00
2019-01-05T04:07:19.376Z,8.87
2019-01-05T04:10:43.403Z,7.70
2019-01-05T04:14:26.081Z,7.03
2019-01-05T04:17:56.949Z,8.20
2019-01-05T04:21:30.988Z,7.40
2019-01-05T04:25:04.861Z,9.57
2019-01-05T04:28:40.913Z,9.17
2019-01-05T04:31:45.579Z,8.87
2019-01-05T04:35:28.897Z,8.57
2019-01-05T04:39:15.686Z,8.27
2019-01-05T04:42:41.063Z,8.23
2019-01-05T04:46:38.784Z,8.83
2019-01-05T04:49:56.594Z,9.07
2019-01-05T04:53:51.923Z,6.90
2019-01-05T04:57:17.411Z,9.23
2019-01-05T05:00:52.831Z,7.97
2019-01-05T05:04:10.353Z,10.83
2019-01-05T05:07:29.499Z,9.07
2019-01-05T05:11:26.945Z,9.20
2019-01-05T05:15:03.147Z,8.57
2019-01-05T05:18:13.938Z,8.27
2019-01-05T05:21:54.766Z,9.70
2019-01-05T05:25:13.376Z,7.60
2019-01-05T05:28:43.049Z,7.70
2019-01-05T05:32:06.161Z,8.70
2019-01-05T05:35:59.043Z,8.73
2019-01-05T05:39:20.757Z,10.17
2019-01-05T05:42:58.796Z,9.00
2019-01-05T05:46:25.419Z,8.50
2019-01-05T05:50:10.165Z,10.07
2019-01-05T05:53:31.270Z,8.47
2019-01-05T05:57:31.667Z,10.63
2019-01-05T06:00:56.536Z,11.20
2019-01-05T06:04:21.418Z,9.67
2019-01-05T06:07:49.917Z,9.37
2019-01-05T06:11:29.671Z,9.43
2019-01-05T06:15:11.076Z,9.70
2019-01-05T06:18:37.562Z,9.03
2019-01-05T06:22:07.670Z,10.10
2019-01-05T06:25:47.561Z,10.63
2019-01-05T06:29:29.095Z,10.57
2019-01-05T06:33:03.200Z,12.07
2019-01-05T06:36:38.030Z,15.30
2019-01-05T06:40:11.569Z,13.73
2019-01-05T06:43:48.647Z,12.93
2019-01-05T06:47:48.721Z,13.77
2019-01-05T06:51:16.319Z,11.93
2019-01-05T06:54:59.932Z,12.97
2019-01-05T06:58:27.856Z,14.23
2019-01-05T07:02:14.028Z,15.53
2019-01-05T07:06:08.877Z,16.70
2019-01-05T07:09:23.019Z,13.23
2019-01-05T07:12:56.127Z,12.53
2019-01-05T07:16:43.428Z,9.77
2019-01-05T07:20:25.043Z,11.00
2019-01-05T07:23:58.432Z,10.03
2019-01-05T07:27:26.628Z,10.97
2019-01-05T07:30:46.596Z,9.37
2019-01-05T07:34:31.993Z,8.50
2019-01-05T07:38:15.164Z,10.23
2019-01-05T07:41:36.548Z,10.57
2019-01-05T07:45:14.555Z,11.93
2019-01-05T07:49:02.047Z,15.07
2019-01-05T07:52:42.487Z,11.17
2019-01-05T07:56:23.912Z,11.40
2019-01-05T08:00:19.385Z,11.33
2019-01-05T08:03:50.657Z,10.07
2019-01-05T08:07:44.818Z,11.67
2019-01-05T08:11:09.134Z,9.43
2019-01-05T08:14:35.309Z,7.80
2019-01-05T08:18:08.555Z,9.73
2019-01-05T08:21:32.270Z,7.40
2019-01-05T08:25:05.099Z,8.50
2019-01-05T08:28:50.608Z,8.60
2019-01-05T08:32:18.179Z,7.10
2019-01-05T08:35:46.870Z,10.77
2019-01-05T08:39:19.217Z,9.80
2019-01-05T08:43:10.396Z,10.97
2019-01-05T08:46:34.640Z,11.57
2019-01-05T08:50:11.126Z,9.97
2019-01-05T08:53:52.500Z,10.07
2019-01-05T08:57:23.587Z,10.37
2019-01-05T09:00:35.658Z,7.50
2019-01-05T09:04:16.678Z,8.83
2019-01-05T09:07:49.795Z,8.30
2019-01-05T09:11:37.422Z,9.43
2019-01-05T09:15:10.809Z,9.90
2019-01-05T09:19:13.213Z,8.73
2019-01-05T09:22:37.626Z,9.10
2019-01-05T09:25:44.693Z,9.67
2019-01-05T09:29:19.801Z,10.57
2019-01-05T09:32:54.242Z,7.60
2019-01-05T09:36:27.825Z,7.93
2019-01-05T09:39:49.426Z,6.93
2019-01-05T09:43:20.290Z,9.63
2019-01-05T09:47:04.696Z,8.30
2019-01-05T09:50:38.874Z,8.03
2019-01-05T09:54:04.232Z,6.80
2019-01-05T09:58:06.859Z,6.30
2019-01-05T10:01:44.607Z,9.10
2019-01-05T10:05:32.600Z,7.43
2019-01-05T10:09:02.810Z,8.40
2019-01-05T10:12:32.766Z,9.73
2019-01-05T10:16:09.878Z,8.87
2019-01-05T10:20:07.004Z,13.53
2019-01-05T10:24:01.804Z,8.93
2019-01-05T10:27:43.713Z,9.83
2019-01-05T10:31:22.148Z,10.40
2019-01-05T10:35:22.382Z,7.87
2019-01-05T10:38:54.111Z,8.73
2019-01-05T10:42:03.536Z,7.93
2019-01-05T10:45:48.678Z,7.33
2019-01-05T10:49:23.340Z,9.37
2019-01-05T10:52:41.375Z,9.00
2019-01-05T10:56:07.260Z,11.03
2019-01-05T10:59:34.095Z,9.70
2019-01-05T11:03:06.124Z,11.67
2019-01-05T11:07:19.110Z,10.23
2019-01-05T11:10:55.339Z,9.53
2019-01-05T11:14:19.034Z,10.00
2019-01-05T11:17:53.634Z,8.33
2019-01-05T11:21:09.586Z,10.57
2019-01-05T11:24:30.060Z,6.77
2019-01-05T11:28:05.231Z,7.27
2019-01-05T11:31:31.806Z,8.83
2019-01-05T11:35:16.549Z,8.37
2019-01-05T11:38:51.400Z,8.83
2019-01-05T11:42:24.428Z,9.83
2019-01-05T11:46:07.666Z,6.77
2019-01-05T11:49:47.382Z,5.80
2019-01-05T11:53:14.539Z,6.87
2019-01-05T11:56:43.083Z,7.70
2019-01-05T12:00:27.467Z,7.27
2019-01-05T12:03:47.110Z,9.70
2019-01-05T12:07:14.552Z,7.37
2019-01-05T12:11:03.652Z,10.33
2019-01-05T12:14:31.199Z,7.23
2019-01-05T12:17:56.373Z,7.83
2019-01-05T12:21:47.527Z,5.77
2019-01-05T12:25:36.011Z,8.77
2019-01-05T12:29:04.783Z,10.03
2019-01-05T12:32:35.267Z,10.13
2019-01-05T12:36:16.461Z,7.50
2019-01-05T12:39:52.268Z,7.93
2019-01-05T12:43:11.590Z,8.97
2019-01-05T12:46:58.234Z,8.50
2019-01-05T12:50:29.661Z,8.03
2019-01-05T12:54:11.713Z,9.13
2019-01-05T12:57:55.890Z,7.43
2019-01-05T13:01:24.856Z,7.60
2019-01-05T13:04:43.648Z,7.30
2019-01-05T13:08:21.128Z,6.70
2019-01-05T13:12:01.170Z,7.57
2019-01-05T13:15:30.078Z,7.53
2019-01-05T13:19:15.124Z,8.17
2019-01-05T13:22:38.152Z,8.67
2019-01-05T13:26:25.550Z,6.87
2019-01-05T13:30:13.664Z,7.43
2019-01-05T13:34:09.460Z,8.37
2019-01-05T13:37:53.325Z,9.73
2019-01-05T13:41:10.185Z,10.70
2019-01-05T13:45:02.689Z,10.27
2019-01-05T13:48:47.763Z,7.67
2019-01-05T13:52:19.642Z,7.00
2019-01-05T13:55:21.033Z,10.37
2019-01-05T13:58:11.702Z,7.73
2019-01-05T14:01:19.572Z,8.07
2019-01-05T14:04:07.688Z,6.80
2019-01-05T14:06:59.383Z,8.40
2019-01-05T14:09:55.808Z,6.30
2019-01-05T14:12:43.887Z,6.23
2019-01-05T14:15:39.284Z,9.57
2019-01-05T14:18:31.565Z,6.03
2019-01-05T14:21:20.085Z,6.30
2019-01-05T14:23:58.114Z,7.43
2019-01-05T14:26:45.651Z,7.87
2019-01-05T14:29:47.156Z,7.63
2019-01-05T14:32:39.135Z,8.83
2019-01-05T14:35:38.636Z,7.13
2019-01-05T14:38:27.090Z,5.93
2019-01-05T14:41:15.539Z,8.47
2019-01-05T14:44:07.554Z,7.57
2019-01-05T14:47:03.102Z,8.47
2019-01-05T14:49:41.903Z,9.30
2019-01-05T14:52:40.256Z,9.90
2019-01-05T14:55:28.663Z,9.63
2019-01-05T14:58:28.779Z,7.40
2019-01-05T15:01:17.216Z,9.20
2019-01-05T15:04:06.694Z,9.97
2019-01-05T15:06:55.045Z,11.37
2019-01-05T15:09:43.361Z,11.57
2019-01-05T15:12:50.897Z,13.00
2019-01-05T15:15:43.221Z,11.60
2019-01-05T15:18:38.342Z,9.77
2019-01-05T15:21:30.964Z,13.47
2019-01-05T15:24:19.996Z,15.80
2019-01-05T15:27:21.677Z,17.57
2019-01-05T15:30:26.454Z,15.43
2019-01-05T15:33:09.155Z,17.20
2019-01-05T15:35:57.291Z,14.40
2019-01-05T15:38:53.100Z,15.30
2019-01-05T15:41:41.425Z,13.17
2019-01-05T15:44:31.124Z,13.63
2019-01-05T15:47:32.379Z,14.33
2019-01-05T15:50:21.010Z,10.93
2019-01-05T15:53:09.459Z,18.07
2019-01-05T15:56:02.020Z,15.27
2019-01-05T15:58:50.057Z,15.63
2019-01-05T16:01:58.177Z,12.40
2019-01-05T16:05:03.246Z,19.57
2019-01-05T16:07:51.783Z,17.23
2019-01-05T16:10:45.104Z,13.03
2019-01-05T16:13:47.435Z,19.53
2019-01-05T16:16:22.691Z,17.10
2019-01-05T16:19:15.038Z,19.30
2019-01-05T16:22:03.422Z,26.90
2019-01-05T16:24:56.194Z,13.60
2019-01-05T16:27:44.662Z,15.17
2019-01-05T16:30:40.679Z,15.83
2019-01-05T16:33:29.006Z,15.03
2019-01-05T16:36:18.719Z,11.23
2019-01-05T16:39:07.077Z,10.17
2019-01-05T16:41:56.449Z,11.40
2019-01-05T16:44:58.120Z,13.47
2019-01-05T16:47:59.946Z,10.03
2019-01-05T16:50:52.110Z,10.57
2019-01-05T16:53:40.540Z,11.50
2019-01-05T16:56:28.345Z,8.53
2019-01-05T16:59:16.728Z,9.77
2019-01-05T17:02:00.561Z,11.10
2019-01-05T17:04:52.816Z,12.87
2019-01-05T17:07:40.966Z,11.67
2019-01-05T17:10:42.782Z,13.07
2019-01-05T17:13:39.021Z,9.90
2019-01-05T17:16:28.236Z,12.50
2019-01-05T17:19:26.986Z,17.83
2019-01-05T17:22:06.354Z,15.37
2019-01-05T17:25:01.985Z,15.10
2019-01-05T17:27:50.232Z,14.00
2019-01-05T17:30:38.071Z,9.97
2019-01-05T17:33:26.503Z,11.33
2019-01-05T17:36:21.888Z,11.70
2019-01-05T17:39:29.929Z,14.20
2019-01-05T17:42:19.412Z,14.13
2019-01-05T17:45:03.534Z,14.03
2019-01-05T17:47:51.543Z,14.93
2019-01-05T17:50:40.247Z,16.33
2019-01-05T17:53:41.847Z,15.37
2019-01-05T17:56:36.935Z,17.97
2019-01-05T17:59:25.240Z,18.90
2019-01-05T18:02:17.868Z,16.17
2019-01-05T18:05:13.679Z,17.50
2019-01-05T18:08:09.458Z,19.03
2019-01-05T18:10:57.273Z,21.63
2019-01-05T18:13:49.665Z,19.93
2019-01-05T18:16:36.003Z,24.27
2019-01-05T18:19:33.579Z,21.20
2019-01-05T18:22:22.259Z,19.33
2019-01-05T18:25:12.546Z,19.07
2019-01-05T18:28:13.952Z,17.30
2019-01-05T18:31:12.124Z,21.97
2019-01-05T18:34:00.708Z,20.00
2019-01-05T18:36:53.387Z,24.23
2019-01-05T18:39:48.585Z,22.80
2019-01-05T18:42:44.948Z,20.40
2019-01-05T18:45:35.872Z,20.87
2019-01-05T18:48:43.888Z,20.20
2019-01-05T18:51:31.946Z,36.03
2019-01-05T18:54:20.375Z,26.97
2019-01-05T18:57:08.130Z,19.40
2019-01-05T19:00:03.877Z,25.83
2019-01-05T19:02:56.127Z,18.20
2019-01-05T19:05:51.742Z,17.90
2019-01-05T19:08:40.158Z,15.43
2019-01-05T19:11:29.733Z,19.23
2019-01-05T19:14:12.482Z,19.13
2019-01-05T19:17:17.209Z,17.73
2019-01-05T19:20:05.059Z,20.43
2019-01-05T19:23:00.767Z,22.13
2019-01-05T19:25:49.059Z,15.23
2019-01-05T19:28:31.199Z,17.90
2019-01-05T19:31:23.528Z,16.90
2019-01-05T19:34:31.992Z,20.87
2019-01-05T19:37:20.178Z,21.80
2019-01-05T19:40:12.770Z,20.13
2019-01-05T19:43:17.056Z,20.90
2019-01-05T19:46:02.762Z,19.77
2019-01-05T19:48:50.783Z,13.60
2019-01-05T19:51:39.273Z,20.27
2019-01-05T19:54:47.065Z,19.83
2019-01-05T19:57:35.624Z,20.43
2019-01-05T20:00:33.577Z,22.37
2019-01-05T20:03:26.004Z,21.63
2019-01-05T20:06:13.760Z,19.10
2019-01-05T20:09:06.129Z,22.00
2019-01-05T20:11:58.130Z,26.30
2019-01-05T20:14:45.850Z,30.27
2019-01-05T20:17:33.760Z,32.43
2019-01-05T20:20:26.023Z,28.40
2019-01-05T20:23:24.746Z,29.57
2019-01-05T20:26:17.157Z,27.80
2019-01-05T20:29:05.338Z,25.20
2019-01-05T20:31:54.627Z,24.43
2019-01-05T20:34:43.903Z,25.63
2019-01-05T20:37:51.446Z,23.83
2019-01-05T20:40:43.548Z,23.13
2019-01-05T20:43:35.532Z,22.40
2019-01-05T20:46:28.146Z,27.30
2019-01-05T20:49:17.569Z,24.23
2019-01-05T20:52:11.114Z,22.27
2019-01-05T20:55:06.810Z,24.40
2019-01-05T20:57:54.941Z,24.27
2019-01-05T21:00:44.181Z,22.43
2019-01-05T21:03:32.373Z,29.47
2019-01-05T21:06:25.115Z,27.73
2019-01-05T21:09:12.948Z,29.73
2019-01-05T21:12:11.145Z,26.17
2019-01-05T21:15:03.587Z,31.03
2019-01-05T21:18:07.903Z,30.00
2019-01-05T21:20:56.188Z,30.93
2019-01-05T21:23:44.397Z,32.77
2019-01-05T21:26:42.679Z,32.60
2019-01-05T21:29:30.558Z,32.60
2019-01-05T21:32:38.269Z,32.77
2019-01-05T21:35:34.247Z,33.90
2019-01-05T21:38:21.959Z,31.50
2019-01-05T21:41:17.606Z,36.33
2019-01-05T21:44:11.515Z,42.50
2019-01-05T21:47:00.887Z,46.67
2019-01-05T21:50:08.553Z,55.17
2019-01-05T21:52:57.800Z,47.87
2019-01-05T21:55:46.999Z,49.27
2019-01-05T21:58:36.487Z,38.73
2019-01-05T22:01:44.068Z,39.70
2019-01-05T22:04:32.405Z,40.87
2019-01-05T22:07:36.679Z,50.00
2019-01-05T22:10:19.579Z,50.43
2019-01-05T22:13:20.836Z,45.77
2019-01-05T22:16:13.673Z,39.77
2019-01-05T22:19:02.879Z,40.73
2019-01-05T22:22:00.103Z,35.30
2019-01-05T22:24:49.352Z,34.03
2019-01-05T22:27:38.058Z,35.03
2019-01-05T22:30:29.501Z,40.10
2019-01-05T22:33:21.772Z,35.40
2019-01-05T22:36:20.595Z,33.33
2019-01-05T22:39:12.956Z,32.10
2019-01-05T22:42:02.235Z,33.27
2019-01-05T22:44:57.746Z,34.57
2019-01-05T22:47:53.492Z,33.93
2019-01-05T22:50:41.384Z,37.23
2019-01-05T22:53:33.459Z,48.13
2019-01-05T22:56:41.133Z,40.17
2019-01-05T22:59:36.616Z,32.17
2019-01-05T23:02:22.359Z,31.37
2019-01-05T23:05:11.364Z,28.17
2019-01-05T23:08:12.689Z,31.10
2019-01-05T23:11:00.851Z,30.07
2019-01-05T23:13:48.774Z,36.20
2019-01-05T23:16:53.112Z,35.17
2019-01-05T23:19:43.123Z,25.37
2019-01-05T23:22:33.831Z,26.30
2019-01-05T23:25:29.043Z,26.50
2019-01-05T23:28:34.115Z,26.80
2019-01-05T23:31:20.525Z,38.60
2019-01-05T23:34:05.915Z,26.10
2019-01-05T23:36:53.569Z,24.47
2019-01-05T23:39:51.973Z,23.33
2019-01-05T23:42:53.662Z,23.00
2019-01-05T23:45:41.568Z,24.27
2019-01-05T23:48:34.763Z,25.03
2019-01-05T23:51:30.538Z,24.13
2019-01-05T23:54:29.071Z,24.37
2019-01-05T23:57:17.220Z,25.77
